createdAt,value
2018-06-25T09:12:07.496Z,22.1
2018-06-25T09:12:57.772Z,22.2
2018-06-25T09:13:48.368Z,22.1
2018-06-25T09:14:38.169Z,22.1
2018-06-25T09:15:31.342Z,22.1
2018-06-25T09:16:19.064Z,22.1
2018-06-25T09:17:08.962Z,22.1
2018-06-25T09:17:58.602Z,22.2
2018-06-25T09:18:48.665Z,22.3
2018-06-25T09:19:39.274Z,22.3
2018-06-25T09:20:29.394Z,22.3
2018-06-25T09:21:18.850Z,22.3
2018-06-25T09:22:10.399Z,22.3
2018-06-25T09:22:58.461Z,22.3
2018-06-25T09:23:49.394Z,22.3
2018-06-25T09:24:39.083Z,22.3
2018-06-25T09:25:29.499Z,22.3
2018-06-25T09:26:19.530Z,22.3
2018-06-25T09:27:09.054Z,22.2
2018-06-25T09:27:59.494Z,22.1
2018-06-25T09:28:50.049Z,22.1
2018-06-25T09:29:40.107Z,22.1
2018-06-25T09:30:29.024Z,22.1
2018-06-25T09:31:19.378Z,22.1
2018-06-25T09:32:09.261Z,22.2
2018-06-25T09:33:00.032Z,22.2
2018-06-25T09:33:48.997Z,22.2
2018-06-25T09:34:40.227Z,22.2
2018-06-25T09:35:31.064Z,22.2
2018-06-25T09:36:20.567Z,22.3
2018-06-25T09:37:09.879Z,22.3
2018-06-25T09:37:59.859Z,22.3
2018-06-25T09:38:49.679Z,22.3
2018-06-25T09:39:40.616Z,22.2
2018-06-25T09:40:29.746Z,22.3
2018-06-25T09:41:21.314Z,22.3
2018-06-25T09:42:10.537Z,22.3
2018-06-25T09:43:00.619Z,22.3
2018-06-25T09:43:50.501Z,22.3
2018-06-25T09:44:40.977Z,22.3
2018-06-25T09:45:30.460Z,22.3
2018-06-25T09:46:20.844Z,22.3
2018-06-25T09:47:12.092Z,22.3
2018-06-25T09:48:01.235Z,22.3
2018-06-25T09:48:50.717Z,22.3
2018-06-25T09:49:41.077Z,22.3
2018-06-25T09:50:31.459Z,22.3
2018-06-25T09:51:20.921Z,22.3
2018-06-25T09:52:11.520Z,22.3
2018-06-25T09:53:01.893Z,22.3
2018-06-25T09:53:51.660Z,22.3
2018-06-25T09:54:41.126Z,22.3
2018-06-25T09:55:31.804Z,22.3
2018-06-25T09:56:20.753Z,22.3
2018-06-25T09:57:11.670Z,22.3
2018-06-25T09:58:01.677Z,22.4
2018-06-25T09:58:51.812Z,22.4
2018-06-25T09:59:41.001Z,22.4
2018-06-25T10:00:32.146Z,22.4
2018-06-25T10:01:21.937Z,22.4
2018-06-25T10:02:11.717Z,22.3
2018-06-25T10:03:01.771Z,22.4
2018-06-25T10:03:52.445Z,22.4
2018-06-25T10:04:41.935Z,22.4
2018-06-25T10:05:31.983Z,22.4
2018-06-25T10:06:22.918Z,22.4
2018-06-25T10:07:12.154Z,22.4
2018-06-25T10:08:02.972Z,22.4
2018-06-25T10:08:52.576Z,22.4
2018-06-25T10:09:42.282Z,22.4
2018-06-25T10:10:33.064Z,22.4
2018-06-25T10:11:23.280Z,22.4
2018-06-25T10:12:12.489Z,22.3
2018-06-25T10:13:03.125Z,22.3
2018-06-25T10:13:53.142Z,22.3
2018-06-25T10:14:42.913Z,22.3
2018-06-25T10:15:33.016Z,22.3
2018-06-25T10:16:22.530Z,22.3
2018-06-25T10:17:13.379Z,22.3
2018-06-25T10:18:03.539Z,22.3
2018-06-25T10:18:53.568Z,22.3
2018-06-25T10:19:43.976Z,22.4
2018-06-25T10:20:33.968Z,22.3
2018-06-25T10:21:25.098Z,22.4
2018-06-25T10:22:13.557Z,22.4
2018-06-25T10:23:04.205Z,22.4
2018-06-25T10:23:53.119Z,22.4
2018-06-25T10:24:44.002Z,22.4
2018-06-25T10:25:33.834Z,22.4
2018-06-25T10:26:23.628Z,22.4
2018-06-25T10:27:14.035Z,22.4
2018-06-25T10:28:03.006Z,22.4
2018-06-25T10:28:54.085Z,22.4
2018-06-25T10:29:44.105Z,22.5
2018-06-25T10:30:33.734Z,22.5
2018-06-25T10:31:24.548Z,22.5
2018-06-25T10:32:14.894Z,22.5
2018-06-25T10:33:04.304Z,22.5
2018-06-25T10:33:54.461Z,22.5
2018-06-25T10:34:45.757Z,22.5
2018-06-25T10:35:35.143Z,22.5
2018-06-25T10:36:24.908Z,22.5
2018-06-25T10:37:14.683Z,22.6
2018-06-25T10:38:05.389Z,22.6
2018-06-25T10:38:54.247Z,22.6
2018-06-25T10:39:45.472Z,22.6
2018-06-25T10:40:35.206Z,22.5
2018-06-25T10:41:25.289Z,22.5
2018-06-25T10:42:17.372Z,22.6
2018-06-25T10:43:04.871Z,22.6
2018-06-25T10:43:55.440Z,22.6
2018-06-25T10:44:45.508Z,22.6
2018-06-25T10:45:35.910Z,22.6
2018-06-25T10:46:25.411Z,22.6
2018-06-25T10:47:15.155Z,22.6
2018-06-25T10:48:05.540Z,22.6
2018-06-25T10:48:55.052Z,22.6
2018-06-25T10:49:45.959Z,22.6
2018-06-25T10:50:35.426Z,22.6
2018-06-25T10:51:24.736Z,22.6
2018-06-25T10:52:15.569Z,22.6
2018-06-25T10:53:05.905Z,22.6
2018-06-25T10:53:54.821Z,22.6
2018-06-25T10:54:45.953Z,22.6
2018-06-25T10:55:36.323Z,22.7
2018-06-25T10:56:25.994Z,22.7
2018-06-25T10:57:15.906Z,22.8
2018-06-25T10:58:06.785Z,22.8
2018-06-25T10:58:56.596Z,22.7
2018-06-25T10:59:49.200Z,22.8
2018-06-25T11:00:36.334Z,22.8
2018-06-25T11:01:26.523Z,22.8
2018-06-25T11:02:17.100Z,22.8
2018-06-25T11:03:06.382Z,22.9
2018-06-25T11:03:57.252Z,22.9
2018-06-25T11:04:46.789Z,22.9
2018-06-25T11:05:37.095Z,22.9
2018-06-25T11:06:26.682Z,22.9
2018-06-25T11:07:20.364Z,22.9
2018-06-25T11:08:06.533Z,22.8
2018-06-25T11:08:57.124Z,22.8
2018-06-25T11:09:47.227Z,22.8
2018-06-25T11:10:37.283Z,22.8
2018-06-25T11:11:27.029Z,22.8
2018-06-25T11:12:16.641Z,22.8
2018-06-25T11:13:09.314Z,22.8
2018-06-25T11:13:57.035Z,22.8
2018-06-25T11:14:47.028Z,22.8
2018-06-25T11:15:37.963Z,22.8
2018-06-25T11:16:27.151Z,22.8
2018-06-25T11:17:17.861Z,22.8
2018-06-25T11:18:08.095Z,22.8
2018-06-25T11:18:58.064Z,22.8
2018-06-25T11:19:47.522Z,22.8
2018-06-25T11:20:37.252Z,22.8
2018-06-25T11:21:28.379Z,22.8
2018-06-25T11:22:17.844Z,22.8
2018-06-25T11:23:08.186Z,22.8
2018-06-25T11:23:58.064Z,22.8
2018-06-25T11:24:47.766Z,22.8
2018-06-25T11:25:38.653Z,22.8
2018-06-25T11:26:28.502Z,22.8
2018-06-25T11:27:19.079Z,22.8
2018-06-25T11:28:08.321Z,22.8
2018-06-25T11:28:58.341Z,22.7
2018-06-25T11:29:48.702Z,22.8
2018-06-25T11:30:38.455Z,22.8
2018-06-25T11:31:29.090Z,22.8
2018-06-25T11:32:19.482Z,22.9
2018-06-25T11:33:09.518Z,22.9
2018-06-25T11:33:58.245Z,22.9
2018-06-25T11:34:49.419Z,22.9
2018-06-25T11:35:39.145Z,22.9
2018-06-25T11:36:29.448Z,22.9
2018-06-25T11:37:19.852Z,22.8
2018-06-25T11:38:09.661Z,22.8
2018-06-25T11:38:59.482Z,22.8
2018-06-25T11:39:49.797Z,22.8
2018-06-25T11:40:39.277Z,22.8
2018-06-25T11:41:29.876Z,22.8
2018-06-25T11:42:19.674Z,22.8
2018-06-25T11:43:09.999Z,22.8
2018-06-25T11:44:00.055Z,22.8
2018-06-25T11:44:49.587Z,22.8
2018-06-25T11:45:39.924Z,22.8
2018-06-25T11:46:30.291Z,22.8
2018-06-25T11:47:19.803Z,22.8
2018-06-25T11:48:09.206Z,22.8
2018-06-25T11:48:59.912Z,22.8
2018-06-25T11:49:50.249Z,22.8
2018-06-25T11:50:39.725Z,22.8
2018-06-25T11:51:30.106Z,22.8
2018-06-25T11:52:20.472Z,22.8
2018-06-25T11:53:09.675Z,22.8
2018-06-25T11:54:00.088Z,22.8
2018-06-25T11:54:51.148Z,22.8
2018-06-25T11:55:40.485Z,22.8
2018-06-25T11:56:29.855Z,22.8
2018-06-25T11:57:18.848Z,22.8
2018-06-25T11:58:09.945Z,22.8
2018-06-25T11:59:00.183Z,22.8
2018-06-25T11:59:50.215Z,22.8
2018-06-25T12:00:40.610Z,22.8
2018-06-25T12:01:30.910Z,22.8
2018-06-25T12:02:21.822Z,22.8
2018-06-25T12:03:14.839Z,22.8
2018-06-25T12:04:01.622Z,22.8
2018-06-25T12:04:50.852Z,22.8
2018-06-25T12:05:41.160Z,22.8
2018-06-25T12:06:31.262Z,22.8
2018-06-25T12:07:21.719Z,22.8
2018-06-25T12:08:11.390Z,22.9
2018-06-25T12:09:01.209Z,22.9
2018-06-25T12:09:52.350Z,22.8
2018-06-25T12:10:44.079Z,22.8
2018-06-25T12:11:31.700Z,22.8
2018-06-25T12:12:21.492Z,22.8
2018-06-25T12:13:11.581Z,22.8
2018-06-25T12:14:02.787Z,22.8
2018-06-25T12:14:52.717Z,22.8
2018-06-25T12:15:42.777Z,22.8
2018-06-25T12:16:32.004Z,22.8
2018-06-25T12:17:22.532Z,22.8
2018-06-25T12:18:12.270Z,22.9
2018-06-25T12:19:03.702Z,23
2018-06-25T12:19:52.330Z,22.9
2018-06-25T12:20:42.876Z,22.9
2018-06-25T12:21:32.695Z,22.8
2018-06-25T12:22:22.243Z,22.8
2018-06-25T12:23:13.619Z,22.9
2018-06-25T12:24:02.350Z,22.8
2018-06-25T12:24:53.253Z,22.9
2018-06-25T12:25:42.472Z,22.9
2018-06-25T12:26:32.808Z,22.9
2018-06-25T12:27:23.188Z,22.9
2018-06-25T12:28:13.703Z,22.8
2018-06-25T12:29:03.248Z,22.9
2018-06-25T12:29:53.276Z,22.9
2018-06-25T12:30:42.601Z,22.9
2018-06-25T12:31:33.743Z,22.8
2018-06-25T12:32:23.544Z,22.8
2018-06-25T12:33:13.291Z,22.8
2018-06-25T12:34:03.641Z,22.8
2018-06-25T12:34:53.432Z,22.8
2018-06-25T12:35:43.818Z,22.8
2018-06-25T12:36:34.122Z,22.8
2018-06-25T12:37:24.148Z,22.8
2018-06-25T12:38:14.487Z,22.8
2018-06-25T12:39:03.733Z,22.8
2018-06-25T12:39:54.095Z,22.8
2018-06-25T12:40:43.567Z,22.8
2018-06-25T12:41:36.000Z,22.8
2018-06-25T12:42:24.836Z,22.8
2018-06-25T12:43:15.178Z,22.8
2018-06-25T12:44:04.160Z,22.8
2018-06-25T12:44:54.726Z,22.8
2018-06-25T12:45:43.697Z,22.8
2018-06-25T12:46:35.251Z,22.8
2018-06-25T12:47:24.163Z,22.8
2018-06-25T12:48:14.571Z,22.8
2018-06-25T12:49:04.810Z,22.8
2018-06-25T12:49:54.542Z,22.8
2018-06-25T12:50:45.221Z,22.8
2018-06-25T12:51:35.267Z,22.8
2018-06-25T12:52:25.382Z,22.8
2018-06-25T12:53:15.407Z,22.8
2018-06-25T12:54:06.002Z,22.8
2018-06-25T12:54:55.528Z,22.8
2018-06-25T12:55:45.075Z,22.7
2018-06-25T12:56:35.096Z,22.7
2018-06-25T12:57:26.032Z,22.6
2018-06-25T12:58:14.954Z,22.7
2018-06-25T12:59:05.324Z,22.7
2018-06-25T12:59:56.234Z,22.7
2018-06-25T13:00:45.661Z,22.7
2018-06-25T13:01:36.718Z,22.8
2018-06-25T13:02:26.070Z,22.7
2018-06-25T13:03:16.154Z,22.8
2018-06-25T13:04:05.476Z,22.7
2018-06-25T13:04:56.036Z,22.7
2018-06-25T13:05:46.627Z,22.7
2018-06-25T13:06:36.663Z,22.6
2018-06-25T13:07:26.164Z,22.6
2018-06-25T13:08:15.701Z,22.6
2018-06-25T13:09:06.711Z,22.6
2018-06-25T13:09:55.568Z,22.7
2018-06-25T13:10:47.153Z,22.7
2018-06-25T13:11:37.054Z,22.7
2018-06-25T13:12:27.179Z,22.7
2018-06-25T13:13:16.631Z,22.7
2018-06-25T13:14:06.668Z,22.6
2018-06-25T13:14:57.609Z,22.6
2018-06-25T13:15:46.268Z,22.6
2018-06-25T13:16:36.148Z,22.6
2018-06-25T13:17:27.549Z,22.6
2018-06-25T13:18:18.519Z,22.6
2018-06-25T13:19:07.098Z,22.6
2018-06-25T13:19:56.571Z,22.6
2018-06-25T13:20:48.831Z,22.6
2018-06-25T13:21:37.281Z,22.6
2018-06-25T13:22:27.138Z,22.7
2018-06-25T13:23:17.699Z,22.6
2018-06-25T13:24:07.452Z,22.6
2018-06-25T13:24:57.756Z,22.6
2018-06-25T13:25:49.630Z,22.6
2018-06-25T13:26:37.088Z,22.6
2018-06-25T13:27:28.304Z,22.6
2018-06-25T13:28:18.320Z,22.6
2018-06-25T13:29:07.722Z,22.6
2018-06-25T13:29:58.151Z,22.6
2018-06-25T13:30:48.539Z,22.6
2018-06-25T13:31:38.911Z,22.6
2018-06-25T13:32:27.813Z,22.6
2018-06-25T13:33:18.813Z,22.6
2018-06-25T13:34:08.408Z,22.6
2018-06-25T13:34:58.892Z,22.6
2018-06-25T13:35:48.921Z,22.6
2018-06-25T13:36:38.743Z,22.6
2018-06-25T13:37:28.777Z,22.6
2018-06-25T13:38:20.215Z,22.6
2018-06-25T13:39:08.958Z,22.6
2018-06-25T13:39:58.422Z,22.6
2018-06-25T13:40:48.186Z,22.6
2018-06-25T13:41:38.192Z,22.7
2018-06-25T13:42:28.948Z,22.7
2018-06-25T13:43:18.427Z,22.6
2018-06-25T13:44:08.753Z,22.7
2018-06-25T13:44:58.503Z,22.7
2018-06-25T13:45:50.025Z,22.7
2018-06-25T13:46:39.514Z,22.7
2018-06-25T13:47:29.263Z,22.7
2018-06-25T13:48:19.250Z,22.7
2018-06-25T13:49:09.253Z,22.7
2018-06-25T13:50:00.135Z,22.7
2018-06-25T13:50:49.332Z,22.7
2018-06-25T13:51:39.630Z,22.7
2018-06-25T13:52:29.985Z,22.7
2018-06-25T13:53:19.421Z,22.7
2018-06-25T13:54:09.788Z,22.8
2018-06-25T13:55:00.331Z,22.8
2018-06-25T13:55:49.633Z,22.8
2018-06-25T13:56:40.582Z,22.8
2018-06-25T13:57:30.025Z,22.8
2018-06-25T13:58:20.161Z,22.8
2018-06-25T13:59:10.769Z,22.8
2018-06-25T13:59:59.746Z,22.8
2018-06-25T14:00:51.305Z,22.8
2018-06-25T14:01:40.137Z,22.8
2018-06-25T14:02:30.689Z,22.8
2018-06-25T14:03:20.511Z,22.8
2018-06-25T14:04:10.967Z,22.8
2018-06-25T14:05:00.664Z,22.8
2018-06-25T14:05:50.686Z,22.8
2018-06-25T14:06:39.944Z,22.8
2018-06-25T14:07:31.391Z,22.8
2018-06-25T14:08:20.932Z,22.8
2018-06-25T14:09:10.104Z,22.8
2018-06-25T14:10:01.629Z,22.8
2018-06-25T14:10:50.564Z,22.8
2018-06-25T14:11:40.921Z,22.8
2018-06-25T14:12:30.332Z,22.8
2018-06-25T14:13:21.854Z,22.8
2018-06-25T14:14:11.391Z,22.8
2018-06-25T14:15:00.623Z,22.7
2018-06-25T14:15:51.798Z,22.7
2018-06-25T14:16:41.979Z,22.8
2018-06-25T14:17:31.560Z,22.8
2018-06-25T14:18:22.233Z,22.8
2018-06-25T14:19:12.285Z,22.8
2018-06-25T14:20:02.505Z,22.8
2018-06-25T14:20:52.383Z,22.8
2018-06-25T14:21:41.652Z,22.8
2018-06-25T14:22:31.630Z,22.8
2018-06-25T14:23:22.038Z,22.8
2018-06-25T14:24:12.102Z,22.8
2018-06-25T14:25:02.755Z,22.7
2018-06-25T14:25:52.725Z,22.8
2018-06-25T14:26:42.357Z,22.8
2018-06-25T14:27:32.607Z,22.8
2018-06-25T14:28:22.567Z,22.8
2018-06-25T14:29:12.158Z,22.8
2018-06-25T14:30:02.148Z,22.8
2018-06-25T14:30:52.108Z,22.8
2018-06-25T14:31:42.436Z,22.8
2018-06-25T14:32:32.253Z,22.8
2018-06-25T14:33:22.628Z,22.8
2018-06-25T14:34:12.675Z,22.8
2018-06-25T14:35:02.806Z,22.8
2018-06-25T14:35:52.185Z,22.8
2018-06-25T14:36:42.559Z,22.8
2018-06-25T14:37:33.159Z,22.7
2018-06-25T14:38:23.443Z,22.8
2018-06-25T14:39:13.501Z,22.8
2018-06-25T14:40:03.698Z,22.8
2018-06-25T14:40:55.261Z,22.8
2018-06-25T14:41:43.344Z,22.7
2018-06-25T14:42:33.232Z,22.7
2018-06-25T14:43:23.845Z,22.7
2018-06-25T14:44:13.652Z,22.8
2018-06-25T14:45:03.407Z,22.7
2018-06-25T14:45:53.795Z,22.8
2018-06-25T14:46:43.541Z,22.8
2018-06-25T14:47:33.321Z,22.8
2018-06-25T14:48:25.621Z,22.8
2018-06-25T14:49:13.773Z,22.7
2018-06-25T14:50:04.752Z,22.8
2018-06-25T14:50:54.377Z,22.7
2018-06-25T14:51:44.257Z,22.7
2018-06-25T14:52:35.121Z,22.8
2018-06-25T14:53:24.595Z,22.8
2018-06-25T14:54:13.817Z,22.7
2018-06-25T14:55:05.030Z,22.8
2018-06-25T14:55:54.555Z,22.8
2018-06-25T14:56:45.215Z,22.8
2018-06-25T14:57:34.327Z,22.8
2018-06-25T14:58:24.985Z,22.8
2018-06-25T14:59:15.658Z,22.8
2018-06-25T15:00:04.816Z,22.8
2018-06-25T15:00:55.143Z,22.8
2018-06-25T15:01:44.992Z,22.8
2018-06-25T15:02:38.014Z,22.8
2018-06-25T15:03:25.364Z,22.8
2018-06-25T15:04:14.617Z,22.8
2018-06-25T15:05:04.673Z,22.8
2018-06-25T15:05:55.309Z,22.8
2018-06-25T15:06:45.399Z,22.8
2018-06-25T15:07:35.167Z,22.8
2018-06-25T15:08:25.186Z,22.8
2018-06-25T15:09:14.388Z,22.7
2018-06-25T15:10:04.744Z,22.8
2018-06-25T15:10:55.343Z,22.8
2018-06-25T15:12:03.027Z,22.8
2018-06-25T15:12:53.033Z,22.8
2018-06-25T15:13:43.117Z,22.8
2018-06-25T15:14:33.979Z,22.8
2018-06-25T15:15:23.750Z,22.8
2018-06-25T15:16:13.630Z,22.8
2018-06-25T15:17:03.375Z,22.8
2018-06-25T15:17:53.842Z,22.9
2018-06-25T15:18:43.442Z,22.9
2018-06-25T15:19:33.898Z,22.8
2018-06-25T15:20:24.515Z,22.9
2018-06-25T15:21:13.684Z,22.9
2018-06-25T15:22:03.784Z,22.9
2018-06-25T15:22:54.679Z,22.9
2018-06-25T15:23:43.607Z,22.9
2018-06-25T15:24:33.929Z,22.9
2018-06-25T15:25:24.583Z,22.9
2018-06-25T15:26:14.885Z,22.9
2018-06-25T15:27:04.450Z,22.9
2018-06-25T15:27:54.803Z,22.9
2018-06-25T15:28:44.816Z,22.8
2018-06-25T15:29:34.632Z,22.8
2018-06-25T15:30:24.939Z,22.8
2018-06-25T15:31:15.301Z,22.8
2018-06-25T15:32:05.264Z,22.8
2018-06-25T15:32:55.144Z,22.8
2018-06-25T15:33:45.466Z,22.8
2018-06-25T15:34:35.569Z,22.8
2018-06-25T15:35:25.028Z,22.8
2018-06-25T15:36:15.182Z,22.8
2018-06-25T15:37:05.156Z,22.8
2018-06-25T15:37:55.283Z,22.8
2018-06-25T15:38:45.857Z,22.8
2018-06-25T15:39:35.590Z,22.8
2018-06-25T15:40:25.410Z,22.8
2018-06-25T15:41:15.751Z,22.8
2018-06-25T15:42:05.564Z,22.8
2018-06-25T15:42:55.883Z,22.8
2018-06-25T15:43:45.657Z,22.8
2018-06-25T15:44:36.283Z,22.8
2018-06-25T15:45:25.523Z,22.8
2018-06-25T15:46:15.367Z,22.8
2018-06-25T15:47:05.116Z,22.8
2018-06-25T15:47:56.267Z,22.8
2018-06-25T15:48:45.307Z,22.8
2018-06-25T15:49:36.437Z,22.8
2018-06-25T15:50:25.145Z,22.8
2018-06-25T15:51:15.490Z,22.8
2018-06-25T15:52:06.110Z,22.8
2018-06-25T15:52:55.875Z,22.8
2018-06-25T15:53:46.303Z,22.8
2018-06-25T15:54:36.051Z,22.8
2018-06-25T15:55:26.095Z,22.8
2018-06-25T15:56:16.412Z,22.8
2018-06-25T15:57:06.230Z,22.8
2018-06-25T15:57:56.277Z,22.8
2018-06-25T15:58:46.987Z,22.8
2018-06-25T15:59:36.405Z,22.8
2018-06-25T16:00:26.157Z,22.8
2018-06-25T16:01:16.598Z,22.8
2018-06-25T16:02:06.894Z,22.8
2018-06-25T16:02:57.236Z,22.8
2018-06-25T16:03:46.640Z,22.8
2018-06-25T16:04:37.571Z,22.8
2018-06-25T16:05:27.085Z,22.8
2018-06-25T16:06:17.684Z,22.8
2018-06-25T16:07:09.869Z,22.8
2018-06-25T16:07:56.981Z,22.8
2018-06-25T16:08:47.623Z,22.8
2018-06-25T16:09:37.923Z,22.8
2018-06-25T16:10:27.704Z,22.8
2018-06-25T16:11:17.515Z,22.8
2018-06-25T16:12:08.437Z,22.8
2018-06-25T16:12:58.495Z,22.8
2018-06-25T16:13:48.005Z,22.8
2018-06-25T16:14:38.094Z,22.8
2018-06-25T16:15:28.101Z,22.8
2018-06-25T16:16:18.423Z,22.8
2018-06-25T16:17:07.784Z,22.8
2018-06-25T16:17:58.116Z,22.8
2018-06-25T16:18:48.124Z,22.8
2018-06-25T16:19:38.417Z,22.8
2018-06-25T16:20:28.997Z,22.8
2018-06-25T16:21:18.258Z,22.8
2018-06-25T16:22:08.063Z,22.8
2018-06-25T16:22:58.814Z,22.8
2018-06-25T16:23:47.608Z,22.8
2018-06-25T16:24:38.465Z,22.8
2018-06-25T16:25:29.173Z,22.8
2018-06-25T16:26:18.332Z,22.8
2018-06-25T16:27:08.423Z,22.8
2018-06-25T16:27:58.523Z,22.8
2018-06-25T16:28:50.723Z,22.8
2018-06-25T16:29:38.851Z,22.8
2018-06-25T16:30:28.973Z,22.8
2018-06-25T16:31:19.061Z,22.7
2018-06-25T16:32:09.937Z,22.7
2018-06-25T16:33:00.018Z,22.7
2018-06-25T16:33:49.728Z,22.7
2018-06-25T16:34:38.975Z,22.8
2018-06-25T16:35:29.452Z,22.8
2018-06-25T16:36:19.690Z,22.8
2018-06-25T16:37:10.086Z,22.8
2018-06-25T16:37:59.282Z,22.8
2018-06-25T16:38:50.201Z,22.8
2018-06-25T16:39:40.252Z,22.7
2018-06-25T16:40:30.597Z,22.8
2018-06-25T16:41:19.496Z,22.8
2018-06-25T16:42:10.141Z,22.8
2018-06-25T16:43:00.235Z,22.8
2018-06-25T16:43:50.797Z,22.8
2018-06-25T16:44:40.667Z,22.7
2018-06-25T16:45:29.896Z,22.8
2018-06-25T16:46:20.982Z,22.7
2018-06-25T16:47:10.534Z,22.8
2018-06-25T16:48:00.309Z,22.8
2018-06-25T16:48:50.963Z,22.8
2018-06-25T16:49:41.252Z,22.8
2018-06-25T16:50:31.049Z,22.7
2018-06-25T16:51:20.884Z,22.7
2018-06-25T16:52:10.648Z,22.7
2018-06-25T16:53:00.943Z,22.7
2018-06-25T16:53:50.488Z,22.7
2018-06-25T16:54:41.437Z,22.7
2018-06-25T16:55:31.399Z,22.7
2018-06-25T16:56:20.731Z,22.7
2018-06-25T16:57:11.323Z,22.7
2018-06-25T16:58:01.888Z,22.7
2018-06-25T16:58:51.480Z,22.7
2018-06-25T16:59:41.543Z,22.7
2018-06-25T17:00:31.634Z,22.7
2018-06-25T17:01:20.822Z,22.7
2018-06-25T17:02:08.593Z,22.6
2018-06-25T17:03:01.199Z,22.6
2018-06-25T17:03:51.400Z,22.6
2018-06-25T17:04:41.382Z,22.6
2018-06-25T17:05:31.450Z,22.6
2018-06-25T17:06:21.187Z,22.6
2018-06-25T17:07:11.795Z,22.6
2018-06-25T17:08:01.777Z,22.6
2018-06-25T17:08:51.998Z,22.6
2018-06-25T17:09:41.469Z,22.6
2018-06-25T17:10:32.266Z,22.6
2018-06-25T17:11:22.954Z,22.6
2018-06-25T17:12:12.717Z,22.6
2018-06-25T17:13:02.498Z,22.6
2018-06-25T17:13:51.951Z,22.6
2018-06-25T17:14:42.934Z,22.6
2018-06-25T17:15:32.379Z,22.6
2018-06-25T17:16:22.802Z,22.6
2018-06-25T17:17:13.150Z,22.6
2018-06-25T17:18:03.135Z,22.6
2018-06-25T17:18:52.883Z,22.6
2018-06-25T17:19:42.439Z,22.6
2018-06-25T17:20:33.298Z,22.6
2018-06-25T17:21:22.916Z,22.6
2018-06-25T17:22:14.289Z,22.6
2018-06-25T17:23:03.195Z,22.6
2018-06-25T17:23:52.792Z,22.6
2018-06-25T17:24:43.879Z,22.6
2018-06-25T17:25:33.998Z,22.6
2018-06-25T17:26:23.776Z,22.6
2018-06-25T17:27:13.052Z,22.6
2018-06-25T17:28:04.170Z,22.6
2018-06-25T17:28:55.038Z,22.6
2018-06-25T17:29:43.159Z,22.6
2018-06-25T17:30:33.828Z,22.6
2018-06-25T17:31:23.897Z,22.6
2018-06-25T17:32:14.476Z,22.6
2018-06-25T17:33:04.596Z,22.6
2018-06-25T17:33:54.310Z,22.6
2018-06-25T17:34:44.118Z,22.6
2018-06-25T17:35:33.992Z,22.5
2018-06-25T17:36:22.826Z,22.5
2018-06-25T17:37:13.490Z,22.5
2018-06-25T17:38:04.996Z,22.5
2018-06-25T17:38:54.502Z,22.5
2018-06-25T17:39:44.259Z,22.5
2018-06-25T17:40:34.880Z,22.5
2018-06-25T17:41:24.912Z,22.6
2018-06-25T17:42:14.410Z,22.6
2018-06-25T17:43:03.994Z,22.6
2018-06-25T17:43:55.421Z,22.6
2018-06-25T17:44:44.907Z,22.6
2018-06-25T17:45:35.255Z,22.6
2018-06-25T17:46:25.061Z,22.6
2018-06-25T17:47:15.378Z,22.6
2018-06-25T17:48:04.598Z,22.5
2018-06-25T17:48:55.222Z,22.6
2018-06-25T17:49:45.532Z,22.5
2018-06-25T17:50:35.324Z,22.6
2018-06-25T17:51:25.436Z,22.5
2018-06-25T17:52:15.544Z,22.5
2018-06-25T17:53:05.810Z,22.5
2018-06-25T17:53:56.128Z,22.5
2018-06-25T17:54:46.534Z,22.5
2018-06-25T17:55:36.011Z,22.6
2018-06-25T17:56:26.397Z,22.6
2018-06-25T17:57:15.848Z,22.6
2018-06-25T17:58:05.883Z,22.6
2018-06-25T17:58:55.722Z,22.6
2018-06-25T17:59:46.042Z,22.6
2018-06-25T18:00:35.338Z,22.6
2018-06-25T18:01:25.494Z,22.6
2018-06-25T18:02:16.017Z,22.6
2018-06-25T18:03:06.030Z,22.6
2018-06-25T18:03:57.008Z,22.6
2018-06-25T18:04:46.137Z,22.5
2018-06-25T18:05:36.745Z,22.5
2018-06-25T18:06:26.557Z,22.6
2018-06-25T18:07:16.895Z,22.6
2018-06-25T18:08:06.415Z,22.5
2018-06-25T18:08:56.456Z,22.5
2018-06-25T18:09:47.036Z,22.5
2018-06-25T18:10:37.109Z,22.5
2018-06-25T18:11:26.373Z,22.4
2018-06-25T18:12:16.969Z,22.5
2018-06-25T18:13:07.311Z,22.4
2018-06-25T18:13:57.344Z,22.5
2018-06-25T18:14:46.108Z,22.4
2018-06-25T18:15:36.245Z,22.4
2018-06-25T18:16:26.084Z,22.4
2018-06-25T18:17:16.654Z,22.4
2018-06-25T18:18:06.653Z,22.4
2018-06-25T18:18:57.386Z,22.5
2018-06-25T18:19:47.377Z,22.5
2018-06-25T18:20:37.509Z,22.5
2018-06-25T18:21:26.893Z,22.5
2018-06-25T18:22:17.570Z,22.5
2018-06-25T18:23:07.313Z,22.5
2018-06-25T18:23:57.443Z,22.5
2018-06-25T18:24:47.478Z,22.5
2018-06-25T18:25:37.256Z,22.5
2018-06-25T18:26:26.997Z,22.4
2018-06-25T18:27:18.388Z,22.4
2018-06-25T18:28:07.639Z,22.4
2018-06-25T18:28:58.528Z,22.4
2018-06-25T18:29:48.835Z,22.4
2018-06-25T18:30:37.787Z,22.4
2018-06-25T18:31:28.390Z,22.4
2018-06-25T18:32:18.462Z,22.4
2018-06-25T18:33:08.873Z,22.4
2018-06-25T18:33:58.612Z,22.4
2018-06-25T18:34:49.230Z,22.4
2018-06-25T18:35:38.821Z,22.4
2018-06-25T18:36:29.086Z,22.4
2018-06-25T18:37:19.147Z,22.4
2018-06-25T18:38:08.730Z,22.4
2018-06-25T18:38:58.762Z,22.4
2018-06-25T18:39:49.187Z,22.4
2018-06-25T18:40:38.483Z,22.4
2018-06-25T18:41:29.578Z,22.4
2018-06-25T18:42:19.114Z,22.4
2018-06-25T18:43:09.685Z,22.4
2018-06-25T18:43:58.599Z,22.4
2018-06-25T18:44:50.468Z,22.4
2018-06-25T18:45:39.511Z,22.4
2018-06-25T18:46:29.639Z,22.4
2018-06-25T18:47:20.272Z,22.4
2018-06-25T18:48:09.958Z,22.4
2018-06-25T18:49:00.369Z,22.4
2018-06-25T18:49:49.871Z,22.4
2018-06-25T18:50:39.581Z,22.4
2018-06-25T18:51:29.746Z,22.4
2018-06-25T18:52:20.013Z,22.4
2018-06-25T18:53:10.316Z,22.4
2018-06-25T18:54:00.763Z,22.4
2018-06-25T18:54:50.809Z,22.4
2018-06-25T18:55:40.526Z,22.4
2018-06-25T18:56:30.353Z,22.4
2018-06-25T18:57:21.278Z,22.4
2018-06-25T18:58:10.180Z,22.4
2018-06-25T18:59:00.533Z,22.4
2018-06-25T18:59:50.887Z,22.4
2018-06-25T19:00:40.120Z,22.3
2018-06-25T19:01:49.655Z,22.3
2018-06-25T19:02:21.052Z,22.3
2018-06-25T19:03:10.922Z,22.3
2018-06-25T19:04:00.648Z,22.3
2018-06-25T19:04:50.416Z,22.3
2018-06-25T19:05:42.232Z,22.3
2018-06-25T19:06:31.120Z,22.3
2018-06-25T19:07:21.957Z,22.3
2018-06-25T19:08:11.592Z,22.3
2018-06-25T19:09:00.994Z,22.3
2018-06-25T19:09:51.069Z,22.3
2018-06-25T19:10:40.579Z,22.3
2018-06-25T19:11:30.687Z,22.3
2018-06-25T19:12:21.557Z,22.4
2018-06-25T19:13:11.168Z,22.4
2018-06-25T19:14:00.987Z,22.4
2018-06-25T19:14:51.838Z,22.5
2018-06-25T19:15:41.310Z,22.5
2018-06-25T19:16:30.783Z,22.4
2018-06-25T19:17:22.281Z,22.4
2018-06-25T19:18:11.245Z,22.4
2018-06-25T19:19:01.850Z,22.4
2018-06-25T19:19:52.717Z,22.4
2018-06-25T19:20:42.536Z,22.5
2018-06-25T19:21:31.962Z,22.5
2018-06-25T19:22:22.675Z,22.6
2018-06-25T19:23:12.404Z,22.6
2018-06-25T19:24:01.902Z,22.6
2018-06-25T19:24:51.512Z,22.6
2018-06-25T19:25:42.721Z,22.6
2018-06-25T19:26:33.462Z,22.6
2018-06-25T19:27:23.221Z,22.5
2018-06-25T19:28:13.091Z,22.4
2018-06-25T19:29:02.317Z,22.4
2018-06-25T19:29:53.353Z,22.4
2018-06-25T19:30:42.687Z,22.4
2018-06-25T19:31:32.550Z,22.4
2018-06-25T19:32:22.896Z,22.5
2018-06-25T19:33:13.147Z,22.6
2018-06-25T19:34:02.995Z,22.6
2018-06-25T19:34:53.277Z,22.6
2018-06-25T19:35:43.590Z,22.6
2018-06-25T19:36:33.736Z,22.6
2018-06-25T19:37:23.471Z,22.5
2018-06-25T19:38:13.479Z,22.5
2018-06-25T19:39:03.922Z,22.5
2018-06-25T19:39:53.400Z,22.6
2018-06-25T19:40:43.468Z,22.6
2018-06-25T19:41:33.239Z,22.6
2018-06-25T19:42:24.119Z,22.6
2018-06-25T19:43:14.179Z,22.6
2018-06-25T19:44:04.022Z,22.5
2018-06-25T19:44:53.435Z,22.5
2018-06-25T19:45:43.871Z,22.4
2018-06-25T19:46:34.811Z,22.4
2018-06-25T19:47:24.331Z,22.4
2018-06-25T19:48:13.784Z,22.4
2018-06-25T19:49:04.327Z,22.4
2018-06-25T19:49:54.473Z,22.4
2018-06-25T19:50:44.226Z,22.5
2018-06-25T19:51:34.584Z,22.5
2018-06-25T19:52:25.398Z,22.6
2018-06-25T19:53:15.021Z,22.6
2018-06-25T19:54:04.520Z,22.6
2018-06-25T19:54:54.064Z,22.5
2018-06-25T19:55:44.880Z,22.4
2018-06-25T19:56:34.652Z,22.5
2018-06-25T19:57:25.516Z,22.6
2018-06-25T19:58:14.804Z,22.6
2018-06-25T19:59:04.922Z,22.6
2018-06-25T19:59:55.110Z,22.6
2018-06-25T20:00:44.687Z,22.6
2018-06-25T20:01:35.380Z,22.5
2018-06-25T20:02:25.996Z,22.6
2018-06-25T20:03:15.762Z,22.6
2018-06-25T20:04:06.125Z,22.6
2018-06-25T20:04:55.354Z,22.6
2018-06-25T20:05:46.042Z,22.6
2018-06-25T20:06:35.501Z,22.6
2018-06-25T20:07:24.971Z,22.6
2018-06-25T20:08:15.499Z,22.6
2018-06-25T20:09:05.935Z,22.6
2018-06-25T20:09:55.984Z,22.6
2018-06-25T20:10:45.528Z,22.6
2018-06-25T20:11:35.849Z,22.6
2018-06-25T20:12:25.500Z,22.6
2018-06-25T20:13:16.098Z,22.6
2018-06-25T20:14:06.090Z,22.6
2018-06-25T20:14:55.669Z,22.6
2018-06-25T20:15:47.116Z,22.6
2018-06-25T20:16:37.254Z,22.6
2018-06-25T20:17:26.774Z,22.6
2018-06-25T20:18:16.382Z,22.6